Bookmark and Share
Track history (hours):
 

Delta Pioneer

Last reported at 2014-Apr-16 14:33 UTC. Time now 2014-Apr-17 04:01 UTC.
Position N 59°31' E 024°57'.

Length 249 m; draft 11.4 m.

Type: Tanker. MMSI: 240244000.

NotesDate/timePositionNaut miles runAvg speedWind from/ knotsBaromVisibWave heightAir tempDewpointWater temp
2014-Apr-16 14:33N 59°31' E 024°57'9 9.1
2014-Apr-16 13:34N 59°39' E 024°49'1010.3
2014-Apr-16 12:33N 59°49' E 024°56'4410.9
2014-Apr-16 08:33N 59°59' E 026°20'1010.0
2014-Apr-16 07:33N 60°01' E 026°40'  
2014-Apr-13 01:09N 59°48' E 025°03'5 8.8
2014-Apr-13 00:33N 59°46' E 024°53'9 8.7
2014-Apr-12 23:33N 59°45' E 024°36'9 8.7
2014-Apr-12 22:33N 59°43' E 024°19'10 8.7
2014-Apr-12 21:27N 59°40' E 024°01'8 8.7
2014-Apr-12 20:29N 59°37' E 023°45'8 8.7
2014-Apr-12 19:33N 59°35' E 023°30'311 7.0
2014-Apr-10 23:16N 55°58' E 016°31'6 8.5
2014-Apr-10 22:33N 55°55' E 016°22'29 7.3
2014-Apr-10 18:33N 55°39' E 015°38'5 5.0
2014-Apr-10 17:33N 55°37' E 015°30'5 5.2
2014-Apr-10 16:33N 55°34' E 015°22'5 5.0
2014-Apr-10 15:33N 55°32' E 015°14'5 5.2
2014-Apr-10 14:33N 55°30' E 015°06'5 5.2
2014-Apr-10 13:33N 55°28' E 014°57'5 5.4
2014-Apr-10 12:33N 55°26' E 014°49'6 5.6
2014-Apr-10 11:33N 55°23' E 014°40'8 8.2
2014-Apr-10 10:33N 55°17' E 014°30'8 8.0
2014-Apr-10 09:33N 55°11' E 014°21'8 7.8
2014-Apr-10 08:33N 55°10' E 014°08'8 8.0
2014-Apr-10 07:33N 55°11' E 013°54'8 8.4
2014-Apr-10 06:33N 55°12' E 013°39'8 8.1
2014-Apr-10 05:33N 55°12' E 013°25'8 8.2
2014-Apr-10 04:33N 55°13' E 013°10'8 8.1
2014-Apr-10 03:33N 55°14' E 012°56'8 8.3
2014-Apr-10 02:33N 55°17' E 012°42'6 6.4
2014-Apr-10 01:33N 55°23' E 012°39'9 8.6
2014-Apr-10 00:33N 55°31' E 012°42'9 8.8
2014-Apr-09 23:33N 55°40' E 012°41'1413.9
2014-Apr-09 22:33N 55°54' E 012°39'1313.4
2014-Apr-09 21:33N 56°06' E 012°32'9 8.8
2014-Apr-09 20:33N 56°12' E 012°19'8 8.0
2014-Apr-09 19:33N 56°16' E 012°07'8 8.4
2014-Apr-09 18:33N 56°24' E 012°01'11 8.9
2014-Apr-09 17:16N 56°35' E 011°57'6 8.8
2014-Apr-09 16:33N 56°41' E 011°54'9 8.8
2014-Apr-09 15:33N 56°49' E 011°49'7 6.7
2014-Apr-09 14:33N 56°56' E 011°45'9 8.9
2014-Apr-09 13:32N 57°04' E 011°40'9 8.7
2014-Apr-09 12:32N 57°13' E 011°34'9 9.0
2014-Apr-09 11:33N 57°21' E 011°29'8 8.5
2014-Apr-09 10:33N 57°28' E 011°22'8 8.0
2014-Apr-09 09:33N 57°34' E 011°11'6 5.5
2014-Apr-09 08:33N 57°38' E 011°04'5 4.9
2014-Apr-09 07:33N 57°41' E 010°57'6 5.8
2014-Apr-09 06:33N 57°45' E 010°49'8 8.2
2014-Apr-09 05:33N 57°48' E 010°34'8 8.1
2014-Apr-09 04:33N 57°46' E 010°19'9 8.8
2014-Apr-09 03:33N 57°45' E 010°03'26 8.6
2014-Apr-09 00:33N 57°36' E 009°18'  

Dump ship's entire track history

sailing weather and tide predictions

Delta Pioneer — SYIO — position and weather